Time;durP1;ratioP1;P1;durP2;ratioP2;P2;SDS_P1;SDS_P2;PMS_P1;PMS_P2;Temp;Humidity;BMP_temperature;BMP_pressure;BME280_temperature;BME280_humidity;BME280_pressure;Samples;Min_cycle;Max_cycle;Signal;HPM_P1;HPM_P2
2023/06/20 00:00:46;;;;;;;11.25;5.68;;;;;;;20.96;93.80;101104.53;5154277;27;20042;-58
2023/06/20 00:03:14;;;;;;;9.00;5.45;;;;;;;20.90;93.89;101103.31;5134692;27;20034;-59
2023/06/20 00:05:42;;;;;;;10.50;5.18;;;;;;;20.90;93.46;101106.84;5151790;27;20077;-58
2023/06/20 00:08:11;;;;;;;9.10;5.93;;;;;;;20.90;93.90;101100.66;5134731;27;20054;-58
2023/06/20 00:10:39;;;;;;;9.00;5.53;;;;;;;20.89;93.50;101096.34;5154388;27;20114;-58
2023/06/20 00:13:08;;;;;;;10.18;5.30;;;;;;;20.81;94.15;101096.31;5154534;27;20498;-68
2023/06/20 00:15:36;;;;;;;10.10;5.60;;;;;;;20.83;94.25;101094.28;5154883;27;20050;-67
2023/06/20 00:18:05;;;;;;;9.07;5.93;;;;;;;20.75;94.68;101087.06;5154637;27;20047;-67
2023/06/20 00:20:33;;;;;;;8.10;5.15;;;;;;;20.75;94.71;101089.75;5135926;27;20108;-69
2023/06/20 00:23:02;;;;;;;11.65;6.60;;;;;;;20.74;95.04;101091.59;5154625;27;20049;-67
2023/06/20 00:25:31;;;;;;;9.07;5.60;;;;;;;20.73;95.83;101089.91;5153665;27;20074;-65
2023/06/20 00:27:59;;;;;;;8.80;5.38;;;;;;;20.68;95.96;101078.88;5152807;27;20489;-67
2023/06/20 00:30:28;;;;;;;9.80;5.22;;;;;;;20.70;95.60;101076.06;5154637;27;20129;-65
2023/06/20 00:32:58;;;;;;;12.27;6.18;;;;;;;20.69;96.02;101077.88;5153652;27;20567;-66
2023/06/20 00:35:27;;;;;;;11.20;6.13;;;;;;;20.70;96.11;101071.53;5150992;27;20072;-58
2023/06/20 00:37:55;;;;;;;10.15;5.72;;;;;;;20.76;96.05;101068.22;5153635;27;20122;-59
2023/06/20 00:40:23;;;;;;;9.82;5.65;;;;;;;20.80;96.27;101067.91;5154067;27;20035;-59
2023/06/20 00:42:52;;;;;;;8.90;6.07;;;;;;;20.74;96.71;101067.53;5154004;27;20047;-59
2023/06/20 00:45:33;;;;;;;11.52;5.93;;;;;;;20.76;96.58;101062.88;5154199;27;20389;-59
2023/06/20 00:48:03;;;;;;;10.45;5.65;;;;;;;20.71;97.10;101073.22;5152005;27;20046;-59
2023/06/20 00:50:33;;;;;;;11.40;6.07;;;;;;;20.79;96.88;101063.53;5150715;27;20046;-58
2023/06/20 00:53:05;;;;;;;11.20;6.67;;;;;;;20.83;96.98;101065.72;5153638;27;20054;-58
2023/06/20 00:55:38;;;;;;;9.43;6.32;;;;;;;20.78;97.25;101065.38;5153803;27;20863;-60
2023/06/20 00:58:07;;;;;;;10.52;5.80;;;;;;;20.79;97.58;101064.38;5155550;27;20043;-58
2023/06/20 01:00:38;;;;;;;11.05;6.22;;;;;;;20.75;96.04;101058.53;5157920;27;20166;-58
2023/06/20 01:03:10;;;;;;;10.63;6.07;;;;;;;20.73;96.18;101063.19;5154988;27;20042;-58
2023/06/20 01:05:38;;;;;;;10.55;5.68;;;;;;;20.76;96.23;101052.19;5155950;27;20057;-59
2023/06/20 01:08:27;;;;;;;11.70;6.38;;;;;;;20.76;95.70;101051.34;5157944;27;20035;-58
2023/06/20 01:11:02;;;;;;;9.95;5.50;;;;;;;20.80;96.35;101054.53;5157935;27;20134;-58
2023/06/20 01:13:43;;;;;;;11.00;6.20;;;;;;;20.75;96.91;101045.16;5154925;27;20050;-58
2023/06/20 01:16:21;;;;;;;10.52;6.13;;;;;;;20.79;96.85;101050.19;5136256;27;20509;-58
2023/06/20 01:19:01;;;;;;;11.70;6.28;;;;;;;20.75;97.00;101050.50;5154684;27;20768;-59
2023/06/20 01:21:37;;;;;;;9.85;5.93;;;;;;;20.74;97.14;101058.69;5154645;27;20531;-58
2023/06/20 01:24:14;;;;;;;11.32;6.15;;;;;;;20.71;97.39;101049.16;5157833;27;20050;-58
2023/06/20 01:26:49;;;;;;;9.88;6.18;;;;;;;20.72;97.08;101055.34;5157791;27;20035;-59
2023/06/20 01:29:22;;;;;;;10.93;6.47;;;;;;;20.70;97.14;101044.81;5157448;27;20110;-57
2023/06/20 01:31:55;;;;;;;14.50;6.78;;;;;;;20.66;97.42;101045.28;5157536;27;20050;-59
2023/06/20 01:34:24;;;;;;;;;;;;;;;20.63;98.27;101045.56;5154109;27;20055;-59
2023/06/20 01:36:56;;;;;;;11.85;6.75;;;;;;;20.60;98.07;101044.06;5154777;27;19925;-59
2023/06/20 01:39:29;;;;;;;10.30;6.38;;;;;;;20.60;98.42;101044.06;5157319;27;20095;-58
2023/06/20 01:42:02;;;;;;;11.43;6.95;;;;;;;20.61;98.46;101043.06;5157323;27;20553;-58
2023/06/20 01:44:34;;;;;;;10.55;6.10;;;;;;;20.59;98.99;101039.75;5138455;27;20095;-59
2023/06/20 01:47:06;;;;;;;10.75;6.57;;;;;;;20.57;99.26;101045.25;5156847;27;20042;-59
2023/06/20 01:49:35;;;;;;;10.02;6.97;;;;;;;20.56;99.28;101040.91;5156936;27;20084;-59
2023/06/20 01:52:04;;;;;;;12.00;6.55;;;;;;;20.60;99.57;101039.56;5138011;27;20485;-59
2023/06/20 01:54:36;;;;;;;11.68;6.65;;;;;;;20.64;99.06;101032.06;5157150;27;20478;-59
2023/06/20 01:57:05;;;;;;;9.05;6.00;;;;;;;20.61;99.63;101037.72;5157067;27;20043;-57
2023/06/20 01:59:35;;;;;;;10.75;6.25;;;;;;;20.60;99.79;101036.91;5155979;27;20061;-58
2023/06/20 02:02:04;;;;;;;11.60;6.22;;;;;;;20.51;100.00;101031.69;5154190;27;20523;-57
2023/06/20 02:04:35;;;;;;;11.73;6.47;;;;;;;20.54;100.00;101032.19;5154922;27;20038;-57
2023/06/20 02:07:05;;;;;;;13.93;7.55;;;;;;;20.52;100.00;101033.34;5156769;27;20043;-58
2023/06/20 02:09:37;;;;;;;9.95;6.53;;;;;;;20.55;100.00;101033.03;5153165;27;20111;-57
2023/06/20 02:12:08;;;;;;;10.88;6.47;;;;;;;20.59;100.00;101037.06;5153137;27;20049;-58
2023/06/20 02:14:36;;;;;;;11.05;6.68;;;;;;;20.57;100.00;101034.56;5156651;27;20454;-58
2023/06/20 02:17:06;;;;;;;10.48;7.15;;;;;;;20.60;100.00;101028.88;5156440;27;20047;-68
2023/06/20 02:19:34;;;;;;;10.52;7.03;;;;;;;20.58;100.00;101032.72;5136981;27;20409;-67
2023/06/20 02:22:04;;;;;;;11.48;6.85;;;;;;;20.51;100.00;101029.03;5155236;27;20551;-68
2023/06/20 02:24:36;;;;;;;10.63;7.43;;;;;;;20.49;100.00;101023.00;5156109;27;20038;-66
2023/06/20 02:27:08;;;;;;;10.63;7.47;;;;;;;20.50;100.00;101022.00;5156679;27;20046;-58
2023/06/20 02:29:39;;;;;;;12.83;7.37;;;;;;;20.51;100.00;101019.16;5137989;27;20051;-59
2023/06/20 02:32:10;;;;;;;10.48;7.03;;;;;;;20.50;100.00;101019.31;5156240;27;20057;-59
2023/06/20 02:34:43;;;;;;;;;;;;;;;20.46;100.00;101016.13;5153824;27;20552;-59
2023/06/20 02:37:13;;;;;;;11.57;7.38;;;;;;;20.48;100.00;101015.97;5155153;27;19954;-67
2023/06/20 02:39:42;;;;;;;11.77;6.80;;;;;;;20.52;100.00;101003.97;5154784;27;20034;-58
2023/06/20 02:42:11;;;;;;;10.65;7.32;;;;;;;20.43;100.00;101008.44;5154701;27;20047;-66
2023/06/20 02:44:42;;;;;;;11.00;7.15;;;;;;;20.44;100.00;101002.94;5155617;27;20035;-66
2023/06/20 02:47:22;;;;;;;10.68;6.88;;;;;;;20.52;100.00;101006.63;5153638;27;20042;-58
2023/06/20 02:49:58;;;;;;;11.65;7.90;;;;;;;20.44;100.00;100999.44;5152373;27;20042;-59
2023/06/20 02:52:36;;;;;;;10.60;7.07;;;;;;;20.36;100.00;100997.56;5154013;27;20034;-66
2023/06/20 02:55:13;;;;;;;10.85;7.70;;;;;;;20.43;100.00;101000.44;5155399;27;20493;-67
2023/06/20 02:57:46;;;;;;;10.43;7.32;;;;;;;20.41;100.00;101003.28;5156197;27;20070;-68
2023/06/20 03:00:14;;;;;;;;;;;;;;;20.35;100.00;101001.22;5156471;27;20051;-68
2023/06/20 03:02:51;;;;;;;12.60;8.20;;;;;;;20.32;100.00;101000.72;5156308;27;20316;-66
2023/06/20 03:05:20;;;;;;;11.70;7.80;;;;;;;20.36;100.00;101010.09;5137655;27;20049;-68
2023/06/20 03:07:49;;;;;;;13.80;7.32;;;;;;;20.36;100.00;101002.91;5137748;27;20133;-68
2023/06/20 03:10:19;;;;;;;11.98;7.57;;;;;;;20.39;100.00;101002.56;5156181;27;20046;-67
2023/06/20 03:12:48;;;;;;;11.95;8.40;;;;;;;20.41;100.00;101008.59;5156149;27;20489;-68
2023/06/20 03:15:16;;;;;;;12.50;8.30;;;;;;;20.39;100.00;101005.25;5155854;27;20039;-68
2023/06/20 03:17:44;;;;;;;11.57;8.52;;;;;;;20.36;100.00;101002.09;5155151;27;20050;-67
2023/06/20 03:20:13;;;;;;;12.85;7.90;;;;;;;20.35;100.00;101003.06;5154173;27;20056;-68
2023/06/20 03:22:41;;;;;;;11.15;8.13;;;;;;;20.37;100.00;101004.59;5155238;27;20043;-67
2023/06/20 03:25:09;;;;;;;11.65;7.80;;;;;;;20.32;100.00;101001.56;5155741;27;20035;-66
2023/06/20 03:27:39;;;;;;;14.25;8.40;;;;;;;20.34;100.00;100999.56;5136174;27;20070;-67
2023/06/20 03:30:08;;;;;;;12.23;7.80;;;;;;;20.32;100.00;101001.56;5155628;27;20042;-68
2023/06/20 03:32:37;;;;;;;11.68;7.63;;;;;;;20.35;100.00;101001.22;5155226;27;20041;-68
2023/06/20 03:35:06;;;;;;;13.63;8.98;;;;;;;20.37;100.00;101004.59;5154666;27;20043;-68
2023/06/20 03:37:35;;;;;;;13.32;8.02;;;;;;;20.35;100.00;100995.06;5136062;27;20146;-66
2023/06/20 03:40:04;;;;;;;11.90;8.57;;;;;;;20.34;100.00;100996.91;5155527;27;20513;-66
2023/06/20 03:42:32;;;;;;;13.98;8.75;;;;;;;20.35;100.00;100995.88;5156182;27;20062;-67
2023/06/20 03:45:01;;;;;;;11.82;7.60;;;;;;;20.37;100.00;100993.03;5155867;27;20417;-67
2023/06/20 03:47:29;;;;;;;12.60;8.27;;;;;;;20.30;100.00;100994.69;5155641;27;20066;-67
2023/06/20 03:49:58;;;;;;;11.02;8.00;;;;;;;20.33;100.00;100989.88;5156155;27;20137;-67
2023/06/20 03:52:26;;;;;;;12.80;7.88;;;;;;;20.29;100.00;100985.88;5155704;27;20038;-67
2023/06/20 03:54:54;;;;;;;11.23;7.95;;;;;;;20.27;100.00;100993.19;5155381;27;20043;-67
2023/06/20 03:57:22;;;;;;;13.02;8.50;;;;;;;20.25;100.00;100976.50;5155403;27;20264;-66
2023/06/20 03:59:51;;;;;;;12.48;8.60;;;;;;;20.25;100.00;100981.84;5155118;27;20423;-66
2023/06/20 04:02:20;;;;;;;12.57;8.43;;;;;;;20.20;100.00;100981.47;5155110;27;20043;-65
2023/06/20 04:04:50;;;;;;;12.10;8.07;;;;;;;20.26;100.00;100972.84;5155294;27;20524;-66
2023/06/20 04:07:19;;;;;;;11.18;8.20;;;;;;;20.24;100.00;100972.16;5155104;27;20039;-65
2023/06/20 04:09:49;;;;;;;11.25;8.27;;;;;;;20.21;100.00;100967.97;5154354;27;20495;-66
2023/06/20 04:12:17;;;;;;;12.73;8.48;;;;;;;20.25;100.00;100979.16;5155369;27;20050;-66
2023/06/20 04:14:46;;;;;;;12.55;8.75;;;;;;;20.32;100.00;100977.53;5155323;27;20512;-66
2023/06/20 04:17:14;;;;;;;11.32;8.13;;;;;;;20.31;100.00;100978.50;5155068;27;20049;-66
2023/06/20 04:19:44;;;;;;;14.43;8.30;;;;;;;20.35;100.00;100979.03;5155114;27;20121;-66
2023/06/20 04:22:14;;;;;;;12.63;8.10;;;;;;;20.37;100.00;100974.34;5154728;27;20070;-66
2023/06/20 04:24:43;;;;;;;12.18;8.80;;;;;;;20.35;100.00;100973.69;5154415;27;20082;-66
2023/06/20 04:27:11;;;;;;;12.93;8.85;;;;;;;20.42;100.00;100972.03;5136120;27;20134;-67
2023/06/20 04:29:41;;;;;;;11.95;8.43;;;;;;;20.39;100.00;100975.88;5154424;27;20049;-66
2023/06/20 04:32:10;;;;;;;14.32;9.52;;;;;;;20.41;100.00;100978.38;5152591;27;20129;-65
2023/06/20 04:34:38;;;;;;;12.80;8.70;;;;;;;20.40;100.00;100984.75;5153439;27;20052;-66
2023/06/20 04:37:07;;;;;;;12.63;9.05;;;;;;;20.38;100.00;100984.91;5135776;27;20042;-59
2023/06/20 04:39:36;;;;;;;14.10;10.13;;;;;;;20.39;100.00;100988.41;5153713;27;20493;-58
2023/06/20 04:42:06;;;;;;;14.57;10.25;;;;;;;20.42;100.00;100986.25;5153594;27;20116;-59
2023/06/20 04:44:34;;;;;;;14.63;10.10;;;;;;;20.36;100.00;100991.41;5152758;27;20557;-58
2023/06/20 04:47:03;;;;;;;15.30;10.82;;;;;;;20.35;100.00;100982.53;5150933;27;20038;-59
2023/06/20 04:49:31;;;;;;;14.57;9.75;;;;;;;20.33;100.00;100986.34;5149978;27;20054;-58
2023/06/20 04:52:00;;;;;;;13.20;10.02;;;;;;;20.42;100.00;100990.75;5150846;27;20053;-57
2023/06/20 04:54:30;;;;;;;14.00;10.48;;;;;;;20.34;100.00;100996.91;5150099;27;20050;-58
2023/06/20 04:56:58;;;;;;;14.80;10.43;;;;;;;20.37;100.00;100999.25;5149899;27;20043;-58
2023/06/20 04:59:26;;;;;;;16.13;10.38;;;;;;;20.38;100.00;100992.91;5151449;27;20062;-58
2023/06/20 05:01:55;;;;;;;13.75;10.70;;;;;;;20.45;100.00;100998.44;5153753;27;20042;-58
2023/06/20 05:04:24;;;;;;;14.40;10.00;;;;;;;20.42;100.00;100994.25;5150664;27;20548;-58
2023/06/20 05:06:52;;;;;;;11.77;9.23;;;;;;;20.45;100.00;100985.09;5150870;27;20442;-58
2023/06/20 05:09:20;;;;;;;13.38;10.20;;;;;;;20.46;100.00;100988.59;5150161;27;20096;-58
2023/06/20 05:11:50;;;;;;;13.80;10.43;;;;;;;20.50;100.00;100987.28;5149373;27;20788;-58
2023/06/20 05:14:18;;;;;;;16.30;10.32;;;;;;;20.56;100.00;100992.81;5152227;27;20039;-59
2023/06/20 05:16:46;;;;;;;14.27;10.45;;;;;;;20.58;100.00;100985.44;5153438;27;20070;-58
2023/06/20 05:19:14;;;;;;;14.07;10.85;;;;;;;20.61;100.00;100997.66;5150394;27;20415;-58
2023/06/20 05:21:42;;;;;;;14.18;10.20;;;;;;;20.64;100.00;100994.66;5150945;27;20393;-58
2023/06/20 05:24:11;;;;;;;16.63;10.95;;;;;;;20.64;100.00;101000.00;5153339;27;20067;-59
2023/06/20 05:26:39;;;;;;;13.15;10.25;;;;;;;20.63;100.00;101000.16;5153491;27;20561;-58
2023/06/20 05:29:08;;;;;;;15.63;11.27;;;;;;;20.61;100.00;100984.28;5134939;27;20050;-59
2023/06/20 05:31:40;;;;;;;14.70;10.50;;;;;;;20.68;100.00;100989.81;5135068;27;20103;-58
2023/06/20 05:34:09;;;;;;;15.32;11.07;;;;;;;20.70;100.00;100982.53;5153270;27;20043;-59
2023/06/20 05:36:37;;;;;;;15.25;11.05;;;;;;;20.71;100.00;100990.38;5153247;27;20066;-57
2023/06/20 05:39:06;;;;;;;14.38;11.30;;;;;;;20.73;100.00;100985.69;5153617;27;20039;-58
2023/06/20 05:41:35;;;;;;;15.23;11.13;;;;;;;20.74;100.00;100984.69;5149726;27;20046;-56
2023/06/20 05:44:03;;;;;;;14.63;11.23;;;;;;;20.75;100.00;100975.69;5150984;27;20046;-57
2023/06/20 05:46:33;;;;;;;14.32;11.50;;;;;;;20.82;100.00;100980.38;5156381;27;20055;-58
2023/06/20 05:49:03;;;;;;;14.80;11.90;;;;;;;20.90;100.00;100983.91;5156966;27;20205;-58
2023/06/20 05:51:31;;;;;;;14.40;10.77;;;;;;;20.95;100.00;100972.72;5157056;27;20042;-58
2023/06/20 05:54:00;;;;;;;15.18;11.43;;;;;;;20.97;100.00;100969.88;5154933;27;20057;-59
2023/06/20 05:56:28;;;;;;;13.05;10.25;;;;;;;21.01;100.00;100972.06;5153344;27;20039;-58
2023/06/20 05:58:56;;;;;;;13.40;11.55;;;;;;;21.06;100.00;100971.56;5155853;27;20050;-58
2023/06/20 06:01:24;;;;;;;15.20;11.32;;;;;;;21.01;100.00;100969.38;5156551;27;20046;-58
2023/06/20 06:03:55;;;;;;;15.55;11.68;;;;;;;21.10;100.00;100968.41;5155321;27;20409;-58
2023/06/20 06:06:25;;;;;;;16.08;12.38;;;;;;;21.13;100.00;100963.72;5153433;27;20088;-57
2023/06/20 06:08:53;;;;;;;14.95;12.13;;;;;;;21.22;100.00;100965.38;5152914;27;20078;-58
2023/06/20 06:11:21;;;;;;;16.40;12.30;;;;;;;21.31;100.00;100963.53;5152176;27;20051;-58
2023/06/20 06:13:50;;;;;;;14.40;12.05;;;;;;;21.41;100.00;100964.22;5152975;27;20042;-58
2023/06/20 06:16:19;;;;;;;15.55;12.65;;;;;;;21.45;100.00;100963.69;5153787;27;20049;-57
2023/06/20 06:18:47;;;;;;;14.35;11.90;;;;;;;21.48;100.00;100967.06;5156231;27;20401;-58
2023/06/20 06:21:16;;;;;;;15.25;12.05;;;;;;;21.56;100.00;100959.88;5156663;27;20046;-59
2023/06/20 06:23:47;;;;;;;15.10;12.38;;;;;;;21.68;100.00;100960.34;5153683;27;20058;-65
2023/06/20 06:26:16;;;;;;;15.15;12.52;;;;;;;21.72;100.00;100951.00;5151997;27;20042;-68
2023/06/20 06:28:44;;;;;;;15.27;12.82;;;;;;;21.85;100.00;100946.94;5153151;27;20087;-65
2023/06/20 06:31:16;;;;;;;14.93;12.10;;;;;;;21.95;100.00;100951.09;5154373;27;20450;-65
2023/06/20 06:33:45;;;;;;;17.27;12.93;;;;;;;22.05;100.00;100952.75;5153755;27;20049;-66
2023/06/20 06:36:15;;;;;;;15.25;12.75;;;;;;;22.18;100.00;100958.34;5152202;27;20434;-67
2023/06/20 06:38:50;;;;;;;17.52;11.98;;;;;;;22.38;100.00;100961.47;5153697;27;20047;-67
2023/06/20 06:41:19;;;;;;;14.77;12.57;;;;;;;22.54;100.00;100975.81;5156032;27;20043;-66
2023/06/20 06:43:48;;;;;;;15.13;12.18;;;;;;;22.60;100.00;100975.13;5154709;27;20039;-67
2023/06/20 06:46:16;;;;;;;15.73;11.82;;;;;;;22.66;100.00;100974.41;5152896;27;20079;-65
2023/06/20 06:48:45;;;;;;;14.75;12.55;;;;;;;22.82;100.00;100969.97;5152746;27;20046;-59
2023/06/20 06:51:13;;;;;;;13.93;12.30;;;;;;;22.87;100.00;100967.59;5155307;27;20043;-59
2023/06/20 06:53:41;;;;;;;16.48;12.68;;;;;;;22.84;100.00;100965.25;5152126;27;20405;-58
2023/06/20 06:56:13;;;;;;;15.52;12.18;;;;;;;22.97;100.00;100962.81;5153455;27;20039;-58
2023/06/20 06:58:42;;;;;;;15.68;11.43;;;;;;;23.02;100.00;100962.28;5153051;27;20562;-58
2023/06/20 07:01:10;;;;;;;16.10;12.10;;;;;;;23.14;100.00;100966.25;5152327;27;20142;-65
2023/06/20 07:03:38;;;;;;;14.32;11.30;;;;;;;23.39;100.00;100969.53;5151972;27;20038;-58
2023/06/20 07:06:07;;;;;;;18.05;12.55;;;;;;;23.52;99.73;100973.44;5151950;27;20050;-57
2023/06/20 07:08:35;;;;;;;17.38;12.13;;;;;;;23.58;100.00;100973.56;5151648;27;20057;-57
2023/06/20 07:11:03;;;;;;;13.40;11.00;;;;;;;23.58;100.00;100976.25;5154382;27;20038;-58
2023/06/20 07:13:33;;;;;;;16.73;11.90;;;;;;;23.78;99.50;100975.72;5154982;27;20373;-58
2023/06/20 07:16:01;;;;;;;16.95;12.02;;;;;;;;;;5155124;27;20050;-59
2023/06/20 07:18:29;;;;;;;17.23;11.35;;;;;;;23.82;100.00;100976.16;5136452;27;20153;-58
2023/06/20 07:20:57;;;;;;;17.83;12.90;;;;;;;23.84;99.24;100982.22;5154115;27;20051;-58
2023/06/20 07:23:25;;;;;;;15.48;12.27;;;;;;;23.90;100.00;100973.44;5151634;27;20103;-58
2023/06/20 07:25:54;;;;;;;14.93;12.38;;;;;;;23.99;100.00;100971.50;5153223;27;20045;-57
2023/06/20 07:28:25;;;;;;;12.52;11.13;;;;;;;24.25;100.00;100974.53;5155165;27;21029;-57
2023/06/20 07:30:54;;;;;;;14.43;12.13;;;;;;;24.50;99.37;100976.06;5155020;27;20070;-58
2023/06/20 07:33:22;;;;;;;16.83;12.30;;;;;;;24.65;96.27;100982.28;5154818;27;20053;-59
2023/06/20 07:35:51;;;;;;;13.23;10.85;;;;;;;24.83;95.30;100981.84;5155116;27;20103;-58
2023/06/20 07:38:19;;;;;;;11.93;9.95;;;;;;;24.98;96.80;100974.56;5155064;27;20099;-58
2023/06/20 07:40:50;;;;;;;14.38;10.73;;;;;;;25.02;94.39;100971.47;5154590;27;20034;-58
2023/06/20 07:43:19;;;;;;;12.93;10.10;;;;;;;25.06;96.75;100972.75;5154304;27;20050;-58
2023/06/20 07:45:47;;;;;;;13.05;10.32;;;;;;;25.17;94.69;100968.72;5154754;27;20051;-59
2023/06/20 07:48:17;;;;;;;13.15;10.05;;;;;;;25.18;94.56;100962.31;5154708;27;20046;-59
2023/06/20 07:50:45;;;;;;;13.07;8.93;;;;;;;25.36;95.42;100956.47;5154578;27;20059;-59
2023/06/20 07:53:15;;;;;;;15.85;9.38;;;;;;;25.43;94.31;100952.00;5154191;27;20049;-59
2023/06/20 07:55:43;;;;;;;11.57;9.38;;;;;;;25.52;93.53;100958.06;5154443;27;20117;-59
2023/06/20 07:58:12;;;;;;;11.82;9.05;;;;;;;25.73;93.34;100952.63;5154569;27;20499;-58
2023/06/20 08:00:43;;;;;;;12.88;8.70;;;;;;;25.78;94.07;100952.00;5136014;27;20051;-58
2023/06/20 08:03:11;;;;;;;12.15;9.68;;;;;;;25.86;93.59;100953.72;5154633;27;20038;-58
2023/06/20 08:05:41;;;;;;;13.90;8.95;;;;;;;26.11;91.71;100946.84;5151589;27;20046;-58
2023/06/20 08:08:09;;;;;;;12.60;8.93;;;;;;;26.32;90.58;100937.78;5150172;27;20042;-59
2023/06/20 08:10:37;;;;;;;11.95;9.18;;;;;;;26.36;89.56;100932.81;5154434;27;20039;-59
2023/06/20 08:13:06;;;;;;;12.98;8.95;;;;;;;26.67;90.39;100920.69;5154270;27;20050;-59
2023/06/20 08:15:34;;;;;;;12.23;8.98;;;;;;;26.80;89.31;100931.50;5154110;27;20051;-58
2023/06/20 08:18:02;;;;;;;11.15;8.05;;;;;;;26.90;85.61;100932.97;5153844;27;20058;-59
2023/06/20 08:20:33;;;;;;;10.68;7.03;;;;;;;27.03;85.01;100930.28;5132583;27;20039;-59
2023/06/20 08:23:03;;;;;;;11.45;7.25;;;;;;;27.39;82.37;100920.97;5151275;27;20042;-59
2023/06/20 08:25:31;;;;;;;9.38;6.22;;;;;;;27.52;83.19;100921.97;5154077;27;20456;-59
2023/06/20 08:27:59;;;;;;;8.20;5.10;;;;;;;27.64;78.03;100914.91;5135568;27;20440;-59
2023/06/20 08:30:42;;;;;;;9.90;5.18;;;;;;;27.49;78.46;100924.03;5153888;27;20056;-60
2023/06/20 08:33:10;;;;;;;8.80;5.60;;;;;;;27.36;79.66;100915.97;5154219;27;20501;-58
2023/06/20 08:35:38;;;;;;;6.72;4.60;;;;;;;27.41;78.69;100918.06;5135506;27;20103;-59
2023/06/20 08:38:09;;;;;;;7.13;4.47;;;;;;;27.58;79.19;100919.28;5135163;27;20133;-60
2023/06/20 08:40:37;;;;;;;8.00;5.45;;;;;;;27.72;78.95;100914.66;5133233;27;20133;-60
2023/06/20 08:43:06;;;;;;;8.90;5.47;;;;;;;27.92;79.04;100902.94;5149347;27;20035;-60
2023/06/20 08:45:37;;;;;;;7.13;5.00;;;;;;;28.09;78.18;100903.34;5150489;27;20039;-60
2023/06/20 08:48:05;;;;;;;8.82;5.05;;;;;;;28.16;75.89;100907.66;5150519;27;20039;-60
2023/06/20 08:50:33;;;;;;;8.73;5.47;;;;;;;28.04;73.58;100908.56;5153380;27;20721;-60
2023/06/20 08:53:04;;;;;;;9.75;5.00;;;;;;;28.19;73.78;100914.50;5134876;27;20053;-59
2023/06/20 08:55:36;;;;;;;7.40;4.97;;;;;;;28.07;74.17;100911.63;5153254;27;20041;-59
2023/06/20 08:58:07;;;;;;;8.82;5.57;;;;;;;28.34;72.50;100923.16;5153082;27;20038;-59
2023/06/20 09:00:35;;;;;;;9.00;5.80;;;;;;;28.45;71.94;100926.22;5153073;27;20078;-61
2023/06/20 09:03:04;;;;;;;8.15;5.82;;;;;;;28.56;75.12;100922.81;5152662;27;20043;-60
2023/06/20 09:05:33;;;;;;;9.77;6.28;;;;;;;28.35;73.13;100921.28;5150347;27;20525;-58
2023/06/20 09:08:01;;;;;;;10.45;5.88;;;;;;;28.24;72.82;100925.50;5150586;27;20046;-59
2023/06/20 09:10:29;;;;;;;8.05;5.82;;;;;;;28.56;71.95;100924.72;5131328;27;20531;-59
2023/06/20 09:12:59;;;;;;;9.20;5.68;;;;;;;28.67;73.21;100924.03;5149663;27;20155;-59
2023/06/20 09:15:28;;;;;;;7.80;4.47;;;;;;;29.01;70.03;100921.91;5151222;27;20046;-63
2023/06/20 09:17:59;;;;;;;9.18;4.97;;;;;;;29.36;69.83;100917.91;5153273;27;20042;-63
2023/06/20 09:20:29;;;;;;;8.38;4.80;;;;;;;29.50;68.88;100911.28;5157376;27;20042;-62
2023/06/20 09:22:58;;;;;;;8.10;5.72;;;;;;;29.46;69.27;100920.91;5157465;27;20642;-63
2023/06/20 09:25:27;;;;;;;9.55;5.95;;;;;;;29.34;70.99;100908.13;5157381;27;20030;-63
2023/06/20 09:27:57;;;;;;;9.00;5.45;;;;;;;29.46;69.83;100904.66;5156946;27;20038;-61
2023/06/20 09:30:31;;;;;;;12.65;6.05;;;;;;;29.29;69.71;100928.81;5154564;27;20042;-63
2023/06/20 09:33:04;;;;;;;9.27;6.18;;;;;;;29.34;70.71;100918.09;5156548;27;20432;-62
2023/06/20 09:35:32;;;;;;;8.77;6.43;;;;;;;29.20;71.07;100919.25;5157273;27;20038;-65
2023/06/20 09:38:04;;;;;;;10.05;6.97;;;;;;;29.48;70.52;100908.00;5157214;27;20042;-64
2023/06/20 09:40:32;;;;;;;9.05;5.90;;;;;;;29.56;69.88;100912.28;5138247;27;20086;-59
2023/06/20 09:43:00;;;;;;;10.45;6.53;;;;;;;29.40;70.55;100902.88;5155741;27;20043;-60
2023/06/20 09:45:30;;;;;;;9.32;5.70;;;;;;;30.07;70.14;100900.25;5135557;27;20069;-63
2023/06/20 09:48:00;;;;;;;9.65;6.50;;;;;;;30.04;68.08;100892.56;5156524;27;20053;-64
2023/06/20 09:50:29;;;;;;;9.23;6.45;;;;;;;30.02;68.46;100894.66;5156670;27;20047;-63
2023/06/20 09:53:04;;;;;;;12.00;6.72;;;;;;;30.16;68.21;100895.34;5153632;27;20046;-64
2023/06/20 09:55:35;;;;;;;9.80;6.22;;;;;;;30.47;67.41;100897.00;5153330;27;20053;-64
2023/06/20 09:58:05;;;;;;;11.95;6.70;;;;;;;30.24;68.01;100905.88;5152318;27;20043;-63
2023/06/20 10:00:36;;;;;;;10.02;7.60;;;;;;;29.90;68.43;100910.88;5137635;27;20090;-62
2023/06/20 10:03:09;;;;;;;11.23;6.72;;;;;;;30.31;68.63;100911.16;5156668;27;20043;-63
2023/06/20 10:05:38;;;;;;;8.15;5.00;;;;;;;30.48;67.89;100909.50;5156511;27;20042;-65
2023/06/20 10:08:08;;;;;;;7.70;4.90;;;;;;;30.72;66.00;100906.03;5154815;27;20038;-63
2023/06/20 10:10:36;;;;;;;7.72;5.07;;;;;;;30.81;66.17;100916.31;5153422;27;20051;-61
2023/06/20 10:13:05;;;;;;;8.07;5.28;;;;;;;30.62;65.36;100912.03;5152511;27;20050;-65
2023/06/20 10:15:35;;;;;;;8.35;5.40;;;;;;;30.62;66.27;100917.44;5156174;27;20663;-64
2023/06/20 10:18:05;;;;;;;6.95;4.45;;;;;;;30.62;65.93;100918.28;5156156;27;20042;-62
2023/06/20 10:20:37;;;;;;;7.80;4.30;;;;;;;30.88;65.45;100910.75;5137410;27;20054;-63
2023/06/20 10:23:09;;;;;;;6.80;4.27;;;;;;;30.78;64.46;100911.34;5137678;27;20046;-63
2023/06/20 10:25:51;;;;;;;6.65;4.03;;;;;;;30.56;62.88;100899.41;5156503;27;20046;-64
2023/06/20 10:28:21;;;;;;;8.07;3.70;;;;;;;31.03;63.04;100907.63;5156162;27;20039;-63
2023/06/20 10:31:00;;;;;;;6.13;3.97;;;;;;;31.30;60.62;100899.84;5153893;27;20038;-63
2023/06/20 10:33:30;;;;;;;6.60;3.92;;;;;;;31.43;60.62;100889.78;5133929;27;20062;-63
2023/06/20 10:36:01;;;;;;;7.45;3.63;;;;;;;31.61;59.92;100889.69;5153017;27;20089;-65
2023/06/20 10:38:32;;;;;;;10.23;4.23;;;;;;;31.82;57.27;100885.50;5156018;27;20400;-63
2023/06/20 10:41:07;;;;;;;5.13;3.30;;;;;;;31.76;58.76;100888.34;5156248;27;20042;-64
2023/06/20 10:44:03;;;;;;;6.45;3.45;;;;;;;31.63;59.31;100882.13;5154716;27;20051;-62
2023/06/20 10:46:47;;;;;;;6.72;3.58;;;;;;;31.95;57.94;100878.13;5105189;27;20043;-62
2023/06/20 10:49:15;;;;;;;6.75;3.30;;;;;;;31.73;57.11;100883.38;5153323;27;20497;-64
2023/06/20 10:51:44;;;;;;;7.88;3.60;;;;;;;31.37;58.56;100877.16;5155972;27;20050;-64
2023/06/20 10:54:14;;;;;;;5.95;3.60;;;;;;;31.26;58.84;100876.13;5155920;27;20043;-63
2023/06/20 10:56:43;;;;;;;4.88;3.22;;;;;;;31.48;58.47;100877.16;5137526;27;20477;-65
2023/06/20 10:59:13;;;;;;;4.95;3.00;;;;;;;31.68;57.77;100873.25;5155287;27;20051;-62
2023/06/20 11:01:43;;;;;;;6.50;3.45;;;;;;;31.90;57.81;100875.31;5155812;27;20053;-65
2023/06/20 11:04:16;;;;;;;6.47;3.30;;;;;;;32.43;56.51;100870.59;5137046;27;20095;-62
2023/06/20 11:06:44;;;;;;;4.95;3.35;;;;;;;32.53;55.19;100871.63;5153956;27;20054;-63
2023/06/20 11:09:17;;;;;;;6.60;2.95;;;;;;;32.27;54.85;100872.22;5152653;27;20057;-64
2023/06/20 11:11:45;;;;;;;6.32;3.15;;;;;;;32.57;54.24;100873.84;5155257;27;20043;-63
2023/06/20 11:14:14;;;;;;;4.68;2.80;;;;;;;33.07;52.87;100877.66;5155622;27;20460;-64
2023/06/20 11:16:44;;;;;;;3.83;2.70;;;;;;;33.42;51.77;100860.16;5155541;27;20509;-66
2023/06/20 11:19:14;;;;;;;5.53;2.83;;;;;;;33.83;51.38;100864.25;5152739;27;20045;-62
2023/06/20 11:22:01;;;;;;;4.70;2.83;;;;;;;33.38;49.09;100848.97;5152554;27;20142;-63
2023/06/20 11:24:31;;;;;;;6.30;3.28;;;;;;;33.05;50.96;100847.94;5154866;27;20061;-63
2023/06/20 11:27:11;;;;;;;4.72;3.30;;;;;;;32.73;51.37;100858.63;5151544;27;20070;-65